createdAt,value
2023-04-18T00:00:27.845Z,8.40
2023-04-18T00:02:56.274Z,4.80
2023-04-18T00:05:24.608Z,6.10
2023-04-18T00:07:53.440Z,4.70
2023-04-18T00:10:21.700Z,7.10
2023-04-18T00:12:49.747Z,5.10
2023-04-18T00:15:18.613Z,7.50
2023-04-18T00:17:48.289Z,5.80
2023-04-18T00:20:16.377Z,6.10
2023-04-18T00:22:46.718Z,5.30
2023-04-18T00:25:14.902Z,6.20
2023-04-18T00:27:43.469Z,5.90
2023-04-18T00:30:11.965Z,7.50
2023-04-18T00:32:40.303Z,5.20
2023-04-18T00:35:08.759Z,8.20
2023-04-18T00:37:37.498Z,6.20
2023-04-18T00:40:06.465Z,5.70
2023-04-18T00:42:35.095Z,5.30
2023-04-18T00:45:03.138Z,7.60
2023-04-18T00:47:31.337Z,6.70
2023-04-18T00:49:59.663Z,5.70
2023-04-18T00:52:27.933Z,4.80
2023-04-18T00:54:56.193Z,6.60
2023-04-18T00:57:24.576Z,8.20
2023-04-18T00:59:52.632Z,5.90
2023-04-18T01:02:20.798Z,7.90
2023-04-18T01:04:49.220Z,6.80
2023-04-18T01:07:17.709Z,5.20
2023-04-18T01:09:45.799Z,5.60
2023-04-18T01:12:14.198Z,5.20
2023-04-18T01:14:43.126Z,5.60
2023-04-18T01:17:13.521Z,6.50
2023-04-18T01:19:41.675Z,4.70
2023-04-18T01:23:04.014Z,6.90
2023-04-18T01:25:32.808Z,7.10
2023-04-18T01:28:01.081Z,7.20
2023-04-18T01:30:29.484Z,6.90
2023-04-18T01:33:03.626Z,5.90
2023-04-18T01:35:32.436Z,6.50
2023-04-18T01:38:00.752Z,6.00
2023-04-18T01:40:30.149Z,7.00
2023-04-18T01:42:58.110Z,6.20
2023-04-18T01:45:26.130Z,5.80
2023-04-18T01:47:54.190Z,7.00
2023-04-18T01:50:22.370Z,6.60
2023-04-18T01:52:50.495Z,8.90
2023-04-18T01:55:18.569Z,11.50
2023-04-18T01:57:46.586Z,9.40
2023-04-18T02:00:14.795Z,8.60
2023-04-18T02:02:43.281Z,10.00
2023-04-18T02:05:11.541Z,10.20
2023-04-18T02:07:41.247Z,9.50
2023-04-18T02:10:11.041Z,8.90
2023-04-18T02:12:39.046Z,6.30
2023-04-18T02:15:07.694Z,9.00
2023-04-18T02:17:37.991Z,8.50
2023-04-18T02:20:09.299Z,8.50
2023-04-18T02:22:40.663Z,8.60
2023-04-18T02:25:12.875Z,8.40
2023-04-18T02:27:43.323Z,5.90
2023-04-18T02:30:16.495Z,8.00
2023-04-18T02:32:59.007Z,6.00
2023-04-18T02:35:43.541Z,6.40
2023-04-18T02:38:21.793Z,8.00
2023-04-18T02:41:01.152Z,10.30
2023-04-18T02:43:37.402Z,13.30
2023-04-18T02:46:13.149Z,10.20
2023-04-18T02:48:45.572Z,11.10
2023-04-18T02:51:17.072Z,18.80
2023-04-18T02:53:49.428Z,18.40
2023-04-18T02:56:28.220Z,16.10
2023-04-18T02:59:15.100Z,12.20
2023-04-18T03:02:03.996Z,11.60
2023-04-18T03:04:33.187Z,18.70
2023-04-18T03:07:03.486Z,19.40
2023-04-18T03:09:35.092Z,19.70
2023-04-18T03:12:07.177Z,18.20
2023-04-18T03:14:36.347Z,22.60
2023-04-18T03:17:04.863Z,24.80
2023-04-18T03:19:37.910Z,21.60
2023-04-18T03:22:09.308Z,23.80
2023-04-18T03:24:40.914Z,22.90
2023-04-18T03:27:09.347Z,37.50
2023-04-18T03:29:38.629Z,29.50
2023-04-18T03:32:07.242Z,29.90
2023-04-18T03:34:36.113Z,23.20
2023-04-18T03:37:05.459Z,23.20
2023-04-18T03:39:37.599Z,14.50
2023-04-18T03:42:06.084Z,16.90
2023-04-18T03:44:35.254Z,11.50
2023-04-18T03:47:04.412Z,12.60
2023-04-18T03:49:33.098Z,10.70
2023-04-18T03:52:01.678Z,12.00
2023-04-18T03:54:30.002Z,11.90
2023-04-18T03:56:59.506Z,22.10
2023-04-18T03:59:27.854Z,18.80
2023-04-18T04:01:56.202Z,16.40
2023-04-18T04:04:24.614Z,22.80
2023-04-18T04:06:52.946Z,25.90
2023-04-18T04:09:21.535Z,24.50
2023-04-18T04:11:51.149Z,26.00
2023-04-18T04:14:20.091Z,30.80
2023-04-18T04:16:48.139Z,29.90
2023-04-18T04:19:17.806Z,19.30
2023-04-18T04:21:54.863Z,21.40
2023-04-18T04:24:23.086Z,15.90
2023-04-18T04:26:53.032Z,14.10
2023-04-18T04:29:23.972Z,12.10
2023-04-18T04:31:52.877Z,13.60
2023-04-18T04:34:28.658Z,14.40
2023-04-18T04:36:56.877Z,14.00
2023-04-18T04:39:25.889Z,12.10
2023-04-18T04:42:13.446Z,13.90
2023-04-18T04:44:50.537Z,11.60
2023-04-18T04:47:19.511Z,16.60
2023-04-18T04:49:47.845Z,14.30
2023-04-18T04:52:16.148Z,15.50
2023-04-18T04:54:45.934Z,16.60
2023-04-18T04:57:15.638Z,16.20
2023-04-18T04:59:43.878Z,13.80
2023-04-18T05:02:12.414Z,14.60
2023-04-18T05:04:40.600Z,16.90
2023-04-18T05:07:08.613Z,17.20
2023-04-18T05:09:36.778Z,15.40
2023-04-18T05:12:05.266Z,18.40
2023-04-18T05:14:33.267Z,13.90
2023-04-18T05:17:01.320Z,14.00
2023-04-18T05:19:29.626Z,14.20
2023-04-18T05:21:57.540Z,10.80
2023-04-18T05:24:25.590Z,7.50
2023-04-18T05:26:53.893Z,7.30
2023-04-18T05:29:21.905Z,6.10
2023-04-18T05:31:50.391Z,9.90
2023-04-18T05:34:18.449Z,7.80
2023-04-18T05:36:48.055Z,8.70
2023-04-18T05:39:17.064Z,9.50
2023-04-18T05:41:45.175Z,9.00
2023-04-18T05:44:13.320Z,10.10
2023-04-18T05:46:41.618Z,8.40
2023-04-18T05:49:10.052Z,8.20
2023-04-18T05:51:38.184Z,7.80
2023-04-18T05:54:06.274Z,5.80
2023-04-18T05:56:34.444Z,9.60
2023-04-18T05:59:02.497Z,6.10
2023-04-18T06:01:30.518Z,10.90
2023-04-18T06:03:58.698Z,8.30
2023-04-18T06:06:27.751Z,6.50
2023-04-18T06:08:56.023Z,7.70
2023-04-18T06:11:24.025Z,9.10
2023-04-18T06:13:52.057Z,11.70
2023-04-18T06:16:20.435Z,8.70
2023-04-18T06:18:48.472Z,15.20
2023-04-18T06:21:16.698Z,8.00
2023-04-18T06:23:44.739Z,10.70
2023-04-18T06:26:12.841Z,8.60
2023-04-18T06:28:41.089Z,9.00
2023-04-18T06:31:09.377Z,10.70
2023-04-18T06:33:37.929Z,8.60
2023-04-18T06:36:07.350Z,8.10
2023-04-18T06:38:35.810Z,11.40
2023-04-18T06:41:03.921Z,8.90
2023-04-18T06:43:32.135Z,8.00
2023-04-18T06:46:01.311Z,10.10
2023-04-18T06:48:29.875Z,9.70
2023-04-18T06:50:57.937Z,8.00
2023-04-18T06:53:26.087Z,6.40
2023-04-18T06:55:54.155Z,6.70
2023-04-18T06:58:22.422Z,9.00
2023-04-18T07:00:52.114Z,6.20
2023-04-18T07:03:20.538Z,7.30
2023-04-18T07:05:50.451Z,7.90
2023-04-18T07:08:18.813Z,6.90
2023-04-18T07:10:47.164Z,6.60
2023-04-18T07:13:16.036Z,6.10
2023-04-18T07:15:44.169Z,9.20
2023-04-18T07:18:16.068Z,8.70
2023-04-18T07:20:46.320Z,5.80
2023-04-18T07:23:14.318Z,6.80
2023-04-18T07:25:42.503Z,6.40
2023-04-18T07:28:10.689Z,22.20
2023-04-18T07:30:38.770Z,6.00
2023-04-18T07:33:07.536Z,6.30
2023-04-18T07:35:36.171Z,9.30
2023-04-18T07:38:04.211Z,9.60
2023-04-18T07:40:32.309Z,7.20
2023-04-18T07:43:00.550Z,12.30
2023-04-18T07:45:28.676Z,6.90
2023-04-18T07:47:57.104Z,6.10
2023-04-18T07:50:25.210Z,5.90
2023-04-18T07:52:53.230Z,8.10
2023-04-18T07:55:21.731Z,5.20
2023-04-18T07:57:50.583Z,8.00
2023-04-18T08:00:18.761Z,7.30
2023-04-18T08:02:46.931Z,7.80
2023-04-18T08:05:15.516Z,7.40
2023-04-18T08:07:43.745Z,11.90
2023-04-18T08:10:12.122Z,9.10
2023-04-18T08:12:40.738Z,11.20
2023-04-18T08:15:09.176Z,9.10
2023-04-18T08:17:39.147Z,10.70
2023-04-18T08:20:07.820Z,8.50
2023-04-18T08:22:43.551Z,6.90
2023-04-18T08:25:18.522Z,8.40
2023-04-18T08:27:46.554Z,9.20
2023-04-18T08:30:14.785Z,8.70
2023-04-18T08:32:42.879Z,5.50
2023-04-18T08:35:10.897Z,9.10
2023-04-18T08:37:39.170Z,10.60
2023-04-18T08:40:07.729Z,11.10
2023-04-18T08:42:36.560Z,19.10
2023-04-18T08:45:06.244Z,11.70
2023-04-18T08:47:35.443Z,14.60
2023-04-18T08:50:04.036Z,9.20
2023-04-18T08:52:32.654Z,9.40
2023-04-18T08:55:02.938Z,11.40
2023-04-18T08:57:31.547Z,8.30
2023-04-18T09:00:02.362Z,11.20
2023-04-18T09:02:42.783Z,6.10
2023-04-18T09:05:16.481Z,9.60
2023-04-18T09:10:13.944Z,9.60
2023-04-18T09:12:52.433Z,8.30
2023-04-18T09:15:23.806Z,7.20
2023-04-18T09:17:54.561Z,8.70
2023-04-18T09:20:38.197Z,8.10
2023-04-18T09:23:11.232Z,6.30
2023-04-18T09:25:45.417Z,7.70
2023-04-18T09:28:30.092Z,6.50
2023-04-18T09:30:59.737Z,11.20
2023-04-18T09:33:32.607Z,8.40
2023-04-18T09:36:18.273Z,5.50
2023-04-18T09:38:46.856Z,10.40
2023-04-18T09:41:20.067Z,8.40
2023-04-18T09:43:49.367Z,5.90
2023-04-18T09:46:22.673Z,10.80
2023-04-18T09:48:51.103Z,7.80
2023-04-18T09:51:19.094Z,4.40
2023-04-18T09:53:50.346Z,8.10
2023-04-18T09:56:28.378Z,9.50
2023-04-18T09:58:57.389Z,4.10
2023-04-18T10:01:28.599Z,7.50
2023-04-18T10:03:56.848Z,5.80
2023-04-18T10:06:24.997Z,8.80
2023-04-18T10:08:52.959Z,3.60
2023-04-18T10:11:22.041Z,5.00
2023-04-18T10:13:50.159Z,5.50
2023-04-18T10:16:18.382Z,5.00
2023-04-18T10:18:46.407Z,7.00
2023-04-18T10:21:15.374Z,6.70
2023-04-18T10:23:43.336Z,7.40
2023-04-18T10:26:11.417Z,7.90
2023-04-18T10:28:54.323Z,5.40
2023-04-18T10:31:23.844Z,6.20
2023-04-18T10:36:30.275Z,6.20
2023-04-18T10:39:04.326Z,7.60
2023-04-18T10:41:33.894Z,8.30
2023-04-18T10:44:22.025Z,6.50
2023-04-18T10:46:52.950Z,7.30
2023-04-18T10:49:32.957Z,4.70
2023-04-18T10:52:02.119Z,7.20
2023-04-18T10:54:43.915Z,8.30
2023-04-18T10:57:13.373Z,6.90
2023-04-18T10:59:42.378Z,5.40
2023-04-18T11:02:26.438Z,6.90
2023-04-18T11:04:58.446Z,5.30
2023-04-18T11:07:36.291Z,6.70
2023-04-18T11:10:08.391Z,7.00
2023-04-18T11:12:39.900Z,6.50
2023-04-18T11:15:12.661Z,14.60
2023-04-18T11:17:41.254Z,7.70
2023-04-18T11:20:14.325Z,4.80
2023-04-18T11:22:49.456Z,8.40
2023-04-18T11:25:18.727Z,2.70
2023-04-18T11:27:47.915Z,7.60
2023-04-18T11:30:16.367Z,5.80
2023-04-18T11:32:44.716Z,20.00
2023-04-18T11:35:14.065Z,5.10
2023-04-18T11:37:43.086Z,7.90
2023-04-18T11:40:11.861Z,9.60
2023-04-18T11:42:40.657Z,9.00
2023-04-18T11:45:12.776Z,6.90
2023-04-18T11:47:43.070Z,13.20
2023-04-18T11:50:12.249Z,9.40
2023-04-18T11:52:41.425Z,7.00
2023-04-18T11:55:23.993Z,5.90
2023-04-18T11:57:58.228Z,4.20
2023-04-18T12:00:32.939Z,7.70
2023-04-18T12:03:02.221Z,8.20
2023-04-18T12:05:32.132Z,4.10
2023-04-18T12:08:10.011Z,6.00
2023-04-18T12:10:38.437Z,5.00
2023-04-18T12:13:08.392Z,5.80
2023-04-18T12:15:38.834Z,13.30
2023-04-18T12:18:09.768Z,7.80
2023-04-18T12:20:39.673Z,5.80
2023-04-18T12:23:08.119Z,12.90
2023-04-18T12:25:36.891Z,5.10
2023-04-18T12:28:15.193Z,9.00
2023-04-18T12:30:43.381Z,7.40
2023-04-18T12:33:13.957Z,7.70
2023-04-18T12:35:42.651Z,6.80
2023-04-18T12:38:11.103Z,10.10
2023-04-18T12:40:39.884Z,7.90
2023-04-18T12:43:08.276Z,8.20
2023-04-18T12:45:36.465Z,9.40
2023-04-18T12:48:04.809Z,10.60
2023-04-18T12:50:33.004Z,7.00
2023-04-18T12:53:01.595Z,9.60
2023-04-18T12:55:29.712Z,10.30
2023-04-18T12:57:58.312Z,10.00
2023-04-18T13:00:32.860Z,8.50
2023-04-18T13:03:11.762Z,9.10
2023-04-18T13:05:49.173Z,9.60
2023-04-18T13:08:22.652Z,8.50
2023-04-18T13:10:57.371Z,8.30
2023-04-18T13:13:29.420Z,7.30
2023-04-18T13:16:00.114Z,5.00
2023-04-18T13:18:44.554Z,9.00
2023-04-18T13:21:14.839Z,8.60
2023-04-18T13:23:53.659Z,8.50
2023-04-18T13:26:29.152Z,9.90
2023-04-18T13:29:07.904Z,6.80
2023-04-18T13:31:50.100Z,8.30
2023-04-18T13:34:24.657Z,5.90
2023-04-18T13:37:09.985Z,8.80
2023-04-18T13:51:32.264Z,11.10
2023-04-18T13:54:16.752Z,6.50
2023-04-18T13:56:48.733Z,7.50
2023-04-18T13:59:24.683Z,7.90
2023-04-18T14:02:08.200Z,8.90
2023-04-18T14:04:37.120Z,6.20
2023-04-18T14:07:08.734Z,9.70
2023-04-18T14:12:22.473Z,8.10
2023-04-18T14:17:44.034Z,4.90
2023-04-18T14:20:15.748Z,5.80
2023-04-18T14:22:43.838Z,7.20
2023-04-18T14:25:11.836Z,5.70
2023-04-18T14:27:40.433Z,4.40
2023-04-18T14:30:09.268Z,5.20
2023-04-18T14:32:37.604Z,3.30
2023-04-18T14:35:07.327Z,2.40
2023-04-18T14:37:36.395Z,3.90
2023-04-18T14:40:05.948Z,3.60
2023-04-18T14:42:34.271Z,4.80
2023-04-18T14:45:03.005Z,3.80
2023-04-18T14:47:34.742Z,3.60
2023-04-18T14:50:02.941Z,5.30
2023-04-18T14:52:31.369Z,5.70
2023-04-18T14:54:59.384Z,4.90
2023-04-18T14:57:29.662Z,3.50
2023-04-18T14:59:57.639Z,5.30
2023-04-18T15:02:26.642Z,2.60
2023-04-18T15:04:56.822Z,2.20
2023-04-18T15:07:24.967Z,6.00
2023-04-18T15:09:53.256Z,2.70
2023-04-18T15:12:22.272Z,4.10
2023-04-18T15:14:50.337Z,3.80
2023-04-18T15:17:18.478Z,6.80
2023-04-18T15:19:46.485Z,4.70
2023-04-18T15:22:14.488Z,3.40
2023-04-18T15:24:42.549Z,4.90
2023-04-18T15:27:10.973Z,2.80
2023-04-18T15:29:39.583Z,4.70
2023-04-18T15:32:09.352Z,4.40
2023-04-18T15:34:37.394Z,4.20
2023-04-18T15:37:05.632Z,7.40
2023-04-18T15:39:33.684Z,4.80
2023-04-18T15:42:02.362Z,4.20
2023-04-18T15:44:50.452Z,4.20
2023-04-18T15:47:18.618Z,5.10
2023-04-18T15:49:47.249Z,5.30
2023-04-18T15:52:16.086Z,4.60
2023-04-18T15:54:44.120Z,5.80
2023-04-18T15:57:12.228Z,4.60
2023-04-18T15:59:40.352Z,6.40
2023-04-18T16:02:09.020Z,7.20
2023-04-18T16:04:38.493Z,5.00
2023-04-18T16:07:07.352Z,5.70
2023-04-18T16:09:35.880Z,5.00
2023-04-18T16:12:04.898Z,4.00
2023-04-18T16:14:33.897Z,9.40
2023-04-18T16:17:02.956Z,6.00
2023-04-18T16:19:32.953Z,4.00
2023-04-18T16:22:07.282Z,5.60
2023-04-18T16:24:35.587Z,3.50
2023-04-18T16:27:03.849Z,5.70
2023-04-18T16:29:31.967Z,4.90
2023-04-18T16:32:03.202Z,4.00
2023-04-18T16:34:31.347Z,5.60
2023-04-18T16:36:59.632Z,4.90
2023-04-18T16:39:29.252Z,5.20
2023-04-18T16:41:57.727Z,4.20
2023-04-18T16:44:26.459Z,3.50
2023-04-18T16:46:55.170Z,4.90
2023-04-18T16:49:23.786Z,3.60
2023-04-18T16:51:52.131Z,4.30
2023-04-18T16:54:20.637Z,6.90
2023-04-18T16:56:48.737Z,3.80
2023-04-18T16:59:18.098Z,4.30
2023-04-18T17:01:46.731Z,6.30
2023-04-18T17:04:15.848Z,5.60
2023-04-18T17:06:44.787Z,5.70
2023-04-18T17:09:16.413Z,7.20
2023-04-18T17:11:45.154Z,6.00
2023-04-18T17:14:13.719Z,3.60
2023-04-18T17:16:42.631Z,3.10
2023-04-18T17:19:11.672Z,3.70
2023-04-18T17:21:39.997Z,5.30
2023-04-18T17:24:09.366Z,3.90
2023-04-18T17:26:38.543Z,5.90
2023-04-18T17:29:06.520Z,5.30
2023-04-18T17:31:34.727Z,5.80
2023-04-18T17:34:03.821Z,3.30
2023-04-18T17:36:32.861Z,3.90
2023-04-18T17:39:06.809Z,5.40
2023-04-18T17:41:39.479Z,5.00
2023-04-18T17:44:08.372Z,4.60
2023-04-18T17:46:37.002Z,4.60
2023-04-18T17:49:08.630Z,4.90
2023-04-18T17:51:36.898Z,3.40
2023-04-18T17:54:05.575Z,2.90
2023-04-18T17:56:33.946Z,5.10
2023-04-18T17:59:02.635Z,6.90
2023-04-18T18:01:30.806Z,5.00
2023-04-18T18:03:58.965Z,5.00
2023-04-18T18:06:30.548Z,4.10
2023-04-18T18:08:58.739Z,9.20
2023-04-18T18:11:27.807Z,7.30
2023-04-18T18:13:57.646Z,5.80
2023-04-18T18:16:26.034Z,7.70
2023-04-18T18:18:54.791Z,6.10
2023-04-18T18:21:23.218Z,7.90
2023-04-18T18:23:51.449Z,5.60
2023-04-18T18:26:19.719Z,5.40
2023-04-18T18:28:47.871Z,8.60
2023-04-18T18:31:16.917Z,7.90
2023-04-18T18:33:45.119Z,10.20
2023-04-18T18:36:13.241Z,10.40
2023-04-18T18:38:41.702Z,12.50
2023-04-18T18:41:10.057Z,12.40
2023-04-18T18:43:38.075Z,11.00
2023-04-18T18:46:06.183Z,9.30
2023-04-18T18:48:38.198Z,9.10
2023-04-18T18:51:06.312Z,13.40
2023-04-18T18:53:34.922Z,10.50
2023-04-18T18:56:05.429Z,11.60
2023-04-18T18:58:34.867Z,7.50
2023-04-18T19:01:03.644Z,9.80
2023-04-18T19:03:32.758Z,8.00
2023-04-18T19:06:03.955Z,6.80
2023-04-18T19:08:32.217Z,9.70
2023-04-18T19:11:00.357Z,9.60
2023-04-18T19:13:28.873Z,6.70
2023-04-18T19:15:57.233Z,5.60
2023-04-18T19:18:25.995Z,4.80
2023-04-18T19:20:55.089Z,4.60
2023-04-18T19:23:25.276Z,4.30
2023-04-18T19:25:53.468Z,6.60
2023-04-18T19:28:23.250Z,8.00
2023-04-18T19:30:53.119Z,8.40
2023-04-18T19:33:24.302Z,4.80
2023-04-18T19:35:52.310Z,5.70
2023-04-18T19:38:20.771Z,6.30
2023-04-18T19:40:48.858Z,9.70
2023-04-18T19:43:17.085Z,5.30
2023-04-18T19:45:45.594Z,5.20
2023-04-18T19:48:13.750Z,8.90
2023-04-18T19:50:42.422Z,7.60
2023-04-18T19:53:11.053Z,7.70
2023-04-18T19:55:39.280Z,7.80
2023-04-18T19:58:07.646Z,9.10
2023-04-18T20:00:35.961Z,14.20
2023-04-18T20:03:04.634Z,8.80
2023-04-18T20:05:33.250Z,9.50
2023-04-18T20:08:01.311Z,5.20
2023-04-18T20:10:29.970Z,8.90
2023-04-18T20:12:58.261Z,6.90
2023-04-18T20:15:26.167Z,9.80
2023-04-18T20:17:54.138Z,8.20
2023-04-18T20:20:23.537Z,5.10
2023-04-18T20:22:51.584Z,6.40
2023-04-18T20:25:19.709Z,6.90
2023-04-18T20:27:48.319Z,7.60
2023-04-18T20:30:16.285Z,8.80
2023-04-18T20:32:44.575Z,8.00
2023-04-18T20:35:12.899Z,6.50
2023-04-18T20:37:41.477Z,8.40
2023-04-18T20:40:10.072Z,7.90
2023-04-18T20:42:39.028Z,5.00
2023-04-18T20:45:11.309Z,6.90
2023-04-18T20:47:41.492Z,7.30
2023-04-18T20:50:10.151Z,8.20
2023-04-18T20:52:38.623Z,7.40
2023-04-18T20:55:06.728Z,5.60
2023-04-18T20:57:35.968Z,5.90
2023-04-18T21:00:06.742Z,7.90
2023-04-18T21:02:36.220Z,6.70
2023-04-18T21:05:04.709Z,6.60
2023-04-18T21:07:32.879Z,6.70
2023-04-18T21:10:00.888Z,5.90
2023-04-18T21:12:29.379Z,6.90
2023-04-18T21:14:57.449Z,5.90
2023-04-18T21:17:25.917Z,8.00
2023-04-18T21:19:54.966Z,10.20
2023-04-18T21:22:22.943Z,8.00
2023-04-18T21:24:50.824Z,8.20
2023-04-18T21:27:18.895Z,10.10
2023-04-18T21:29:46.815Z,5.60
2023-04-18T21:32:14.750Z,6.20
2023-04-18T21:34:42.754Z,7.00
2023-04-18T21:37:10.677Z,6.40
2023-04-18T21:39:39.487Z,7.40
2023-04-18T21:42:07.565Z,9.10
2023-04-18T21:44:36.222Z,5.60
2023-04-18T21:47:04.233Z,6.00
2023-04-18T21:49:32.253Z,6.40
2023-04-18T21:52:00.580Z,12.10
2023-04-18T21:54:28.547Z,8.10
2023-04-18T21:56:57.009Z,10.80
2023-04-18T21:59:25.099Z,8.70
2023-04-18T22:01:53.090Z,5.30
2023-04-18T22:04:26.118Z,9.20
2023-04-18T22:06:54.732Z,9.10
2023-04-18T22:09:23.521Z,6.80
2023-04-18T22:11:51.962Z,7.50
2023-04-18T22:14:20.088Z,8.30
2023-04-18T22:16:50.220Z,8.10
2023-04-18T22:19:19.505Z,8.20
2023-04-18T22:21:47.583Z,7.20
2023-04-18T22:24:15.822Z,7.90
2023-04-18T22:26:44.152Z,8.10
2023-04-18T22:29:12.173Z,10.10
2023-04-18T22:31:40.280Z,7.10
2023-04-18T22:34:08.256Z,7.50
2023-04-18T22:36:36.443Z,7.70
2023-04-18T22:39:06.282Z,7.20
2023-04-18T22:41:36.917Z,7.70
2023-04-18T22:44:04.976Z,5.40
2023-04-18T22:46:33.349Z,5.10
2023-04-18T22:49:01.347Z,6.00
2023-04-18T22:51:29.556Z,5.20
2023-04-18T22:53:57.525Z,4.40
2023-04-18T22:56:26.116Z,9.40
2023-04-18T22:58:54.260Z,4.20
2023-04-18T23:01:22.447Z,4.20
2023-04-18T23:03:50.706Z,6.10
2023-04-18T23:06:18.842Z,3.80
2023-04-18T23:08:47.216Z,4.50
2023-04-18T23:11:15.911Z,5.20
2023-04-18T23:13:44.428Z,12.30
2023-04-18T23:16:12.482Z,5.10
2023-04-18T23:18:40.473Z,7.40
2023-04-18T23:21:08.447Z,6.40
2023-04-18T23:23:36.428Z,6.40
2023-04-18T23:26:25.476Z,6.10
2023-04-18T23:28:53.647Z,5.50
2023-04-18T23:31:21.843Z,5.20
2023-04-18T23:33:49.998Z,10.30
2023-04-18T23:36:18.007Z,6.90
2023-04-18T23:38:46.913Z,7.00
2023-04-18T23:41:15.933Z,6.30
2023-04-18T23:43:44.742Z,5.30
2023-04-18T23:46:13.313Z,10.70
2023-04-18T23:48:41.674Z,5.30
2023-04-18T23:51:10.001Z,5.20
2023-04-18T23:53:39.985Z,4.10
2023-04-18T23:56:08.441Z,6.60
2023-04-18T23:58:36.848Z,5.00
